Skip Navigation Links
NOAA logo - Click to go to the NOAA homepage
NOAA's National Weather Service
Alaska Aviation Weather Unit
  NWS logo - Click to go to the NWS homepage
Left Navbar Graphic     19 AKDT = 03 GMT

   
NOAA is celebrating 200 years of science, service, and stewardship. Visit the NOAA 200th celebration Web site to learn more.
USA.gov is the U.S. Government's official Web portal to all Federal, state and local government Web resources and services.
Facebook
NWS on Facebook

Important Change Regarding the AAWU Web Presence

 

Over the last several months, the AAWU has been working to navigate its webpages to a nationally supported server. Security, as well as other needs, have necessitated the change.  In the process, we have made an effort to enhance the functionality of our website, as well as some of our products. As of June 20, 2017, aawu.arh.noaa.gov will be discontinued. The new AAWU web address is weather.gov/aawu. It is now live and will run in-parallel with the old site until it is discontinued. Please send any feedback or questions regarding the new webpages to nws.ar.aawu.webauthors@noaa.gov.  Thank you for your patience during this time of transition.
AAWU Home :: Display TAF Add Bookmark
METAR PAJC 242156Z AUTO 11006KT 10SM FEW035 BKN048 OVC060 11/02
 A3005 RMK AO2 SLP176 T01060017=

METAR PAJC 242256Z AUTO 20006KT 10SM FEW037 OVC065 11/M01 A3006 RMK AO2
     SLP180 T01061006=

METAR PAJC 250156Z AUTO 36008KT 10SM -RA FEW024 BKN034 OVC045 07/03
     A3010 RMK AO2 WSHFT 0057 RAB11 SLP195 P0000 T00670028=

SPECI PAJC 250228Z AUTO 27003KT 10SM -RA BKN028 OVC045 07/02 A3011 RMK
     AO2 P0000=

METAR PAJC 250256Z AUTO 00000KT 10SM -RA OVC028 07/03 A3011 RMK AO2
     SLP196 P0000 60000 T00670028 51014=


NOAA's National Weather Service
Alaska Aviation Weather Unit
6930 Sand Lake Road
Anchorage, AK 99502-1845
Disclaimer
Credits
Glossary
Privacy Policy
About Us
Career Opportunities
Contact AAWU Internet Services Site last modified: April, 17th 2012